Time;durP1;ratioP1;P1;durP2;ratioP2;P2;SDS_P1;SDS_P2;PMS_P1;PMS_P2;Temp;Humidity;BMP_temperature;BMP_pressure;BME280_temperature;BME280_humidity;BME280_pressure;Samples;Min_cycle;Max_cycle;Signal;HPM_P1;HPM_P2
2024/04/05 00:00:16;;;;;;;4.07;1.40;;;;;;;11.07;100.00;98804.66;4987773;28;20037;-55
2024/04/05 00:02:43;;;;;;;2.80;1.10;;;;;;;11.15;100.00;98811.75;4983774;28;20033;-55
2024/04/05 00:05:12;;;;;;;4.57;1.67;;;;;;;11.11;100.00;98797.78;4992705;28;20023;-55
2024/04/05 00:07:38;;;;;;;3.95;1.30;;;;;;;11.16;100.00;98805.28;4981110;28;20060;-56
2024/04/05 00:10:06;;;;;;;5.75;1.38;;;;;;;11.28;100.00;98813.63;4983490;28;20030;-56
2024/04/05 00:12:31;;;;;;;3.08;1.35;;;;;;;11.30;100.00;98812.38;4995573;28;20034;-55
2024/04/05 00:14:57;;;;;;;2.00;1.00;;;;;;;11.41;100.00;98811.75;4980676;28;20030;-55
2024/04/05 00:17:22;;;;;;;3.53;1.05;;;;;;;11.48;100.00;98803.63;4983349;28;20046;-56
2024/04/05 00:19:47;;;;;;;3.70;1.30;;;;;;;11.50;100.00;98806.13;4989503;28;20034;-56
2024/04/05 00:22:13;;;;;;;3.72;0.90;;;;;;;11.55;100.00;98798.19;4979799;28;20033;-56
2024/04/05 00:24:38;;;;;;;5.07;1.17;;;;;;;11.58;100.00;98795.91;4980104;28;20077;-56
2024/04/05 00:27:04;;;;;;;4.22;1.10;;;;;;;11.63;100.00;98789.84;4984202;28;20383;-56
2024/04/05 00:29:29;;;;;;;2.55;1.00;;;;;;;11.60;100.00;98782.97;4985070;28;20030;-56
2024/04/05 00:31:54;;;;;;;6.65;1.02;;;;;;;11.58;100.00;98786.94;4981664;28;20037;-56
2024/04/05 00:34:20;;;;;;;4.57;1.30;;;;;;;11.54;100.00;98799.25;4982547;28;20045;-56
2024/04/05 00:36:45;;;;;;;4.05;1.02;;;;;;;11.57;100.00;98796.94;4980972;28;20045;-56
2024/04/05 00:39:11;;;;;;;3.28;1.20;;;;;;;11.52;100.00;98804.88;4985721;28;20030;-56
2024/04/05 00:41:36;;;;;;;3.70;1.17;;;;;;;11.56;100.00;98800.72;4985422;28;20499;-56
2024/04/05 00:44:02;;;;;;;2.78;0.93;;;;;;;11.49;100.00;98799.88;4982173;28;20045;-57
2024/04/05 00:46:27;;;;;;;6.22;1.27;;;;;;;11.45;100.00;98803.19;4981177;28;20034;-56
2024/04/05 00:48:53;;;;;;;3.08;1.33;;;;;;;11.45;100.00;98797.78;4984611;28;20041;-56
2024/04/05 00:51:19;;;;;;;4.75;1.35;;;;;;;11.55;100.00;98792.78;4984360;28;20372;-56
2024/04/05 00:53:46;;;;;;;3.80;1.08;;;;;;;11.66;100.00;98791.31;4994462;28;20402;-56
2024/04/05 00:56:12;;;;;;;8.27;1.10;;;;;;;11.74;100.00;98775.69;4986120;28;20040;-56
2024/04/05 00:58:38;;;;;;;4.20;0.98;;;;;;;11.81;100.00;98770.22;4987978;28;20030;-56
2024/04/05 01:01:04;;;;;;;2.80;1.02;;;;;;;11.91;100.00;98764.41;4981126;28;20133;-56
2024/04/05 01:03:30;;;;;;;3.88;0.95;;;;;;;11.96;100.00;98761.88;4987282;28;20467;-56
2024/04/05 01:05:55;;;;;;;4.38;1.10;;;;;;;11.83;100.00;98752.69;4982818;28;20138;-56
2024/04/05 01:08:21;;;;;;;4.45;1.08;;;;;;;11.83;100.00;98773.56;4984013;28;20030;-56
2024/04/05 01:10:46;;;;;;;5.25;0.90;;;;;;;11.73;100.00;98771.28;4993712;28;20497;-57
2024/04/05 01:13:13;;;;;;;3.10;1.10;;;;;;;11.65;100.00;98767.97;4983727;28;20451;-57
2024/04/05 01:15:39;;;;;;;2.13;1.00;;;;;;;11.55;100.00;98762.97;4971584;28;20097;-57
2024/04/05 01:18:07;;;;;;;3.75;1.17;;;;;;;11.53;100.00;98768.63;4982608;28;20106;-57
2024/04/05 01:20:34;;;;;;;3.22;1.10;;;;;;;11.53;100.00;98774.03;4987470;28;20371;-56
2024/04/05 01:23:01;;;;;;;7.30;1.33;;;;;;;11.67;100.00;98768.59;4986809;28;20419;-56
2024/04/05 01:25:27;;;;;;;4.07;1.20;;;;;;;11.80;100.00;98763.16;4982605;28;20081;-56
2024/04/05 01:27:52;;;;;;;6.85;1.10;;;;;;;11.81;100.00;98770.22;4981218;28;20031;-56
2024/04/05 01:30:18;;;;;;;2.53;1.00;;;;;;;11.76;100.00;98767.31;4976775;28;20027;-56
2024/04/05 01:32:53;;;;;;;10.18;0.88;;;;;;;11.69;100.00;98766.50;4982030;28;20036;-56
2024/04/05 01:35:19;;;;;;;8.63;1.10;;;;;;;11.62;100.00;98775.47;4983980;28;20183;-56
2024/04/05 01:37:44;;;;;;;1.80;0.90;;;;;;;11.56;100.00;98770.06;4988792;28;20036;-56
2024/04/05 01:40:10;;;;;;;3.38;1.05;;;;;;;11.56;100.00;98767.38;4981947;28;20047;-56
2024/04/05 01:42:36;;;;;;;3.30;1.08;;;;;;;11.52;100.00;98764.22;4977334;28;20030;-56
2024/04/05 01:45:04;;;;;;;4.28;1.20;;;;;;;11.52;100.00;98772.34;4984482;28;20035;-56
2024/04/05 01:47:29;;;;;;;6.97;1.20;;;;;;;11.48;100.00;98768.41;4985333;28;20835;-56
2024/04/05 01:49:54;;;;;;;5.63;1.35;;;;;;;11.51;100.00;98764.47;4985722;28;20030;-56
2024/04/05 01:52:20;;;;;;;5.53;1.05;;;;;;;11.60;100.00;98764.00;4978691;28;20443;-56
2024/04/05 01:54:45;;;;;;;3.35;1.08;;;;;;;11.58;100.00;98760.69;4983495;28;20032;-56
2024/04/05 01:57:11;;;;;;;2.83;1.05;;;;;;;11.58;100.00;98760.69;4991144;28;20034;-56
2024/04/05 01:59:36;;;;;;;2.80;1.02;;;;;;;11.54;100.00;98762.16;4990650;28;20043;-56
2024/04/05 02:02:02;;;;;;;3.45;1.20;;;;;;;11.65;100.00;98759.84;4983807;28;20046;-56
2024/04/05 02:04:27;;;;;;;5.30;1.10;;;;;;;11.52;100.00;98739.84;4991742;28;20105;-56
2024/04/05 02:06:53;;;;;;;4.47;1.73;;;;;;;11.55;100.00;98749.44;4983833;28;20030;-56
2024/04/05 02:09:18;;;;;;;4.65;1.17;;;;;;;11.58;100.00;98744.44;4992317;28;20026;-57
2024/04/05 02:11:43;;;;;;;4.97;1.05;;;;;;;11.62;100.00;98748.38;4994877;28;20081;-57
2024/04/05 02:14:09;;;;;;;3.40;0.80;;;;;;;11.60;100.00;98738.78;4987650;28;20490;-57
2024/04/05 02:16:34;;;;;;;8.70;1.13;;;;;;;11.67;100.00;98742.31;4992931;28;20022;-57
2024/04/05 02:18:59;;;;;;;8.55;1.25;;;;;;;11.75;100.00;98739.38;4985268;28;20023;-57
2024/04/05 02:21:25;;;;;;;4.47;1.02;;;;;;;11.82;100.00;98752.94;4988211;28;20030;-57
2024/04/05 02:23:50;;;;;;;4.90;1.23;;;;;;;11.86;100.00;98754.19;4987776;28;20113;-57
2024/04/05 02:26:16;;;;;;;4.35;1.20;;;;;;;11.84;100.00;98759.81;4987585;28;20026;-57
2024/04/05 02:28:41;;;;;;;3.42;1.27;;;;;;;11.80;100.00;98738.75;4986806;28;20026;-57
2024/04/05 02:31:08;;;;;;;4.78;1.25;;;;;;;11.82;100.00;98748.34;4985690;28;20065;-57
2024/04/05 02:33:33;;;;;;;5.40;1.27;;;;;;;11.82;100.00;98750.22;4991034;28;20092;-57
2024/04/05 02:35:59;;;;;;;5.72;2.03;;;;;;;11.76;100.00;98751.06;4987739;28;20478;-57
2024/04/05 02:38:25;;;;;;;4.95;1.20;;;;;;;11.78;100.00;98748.97;4985483;28;20784;-57
2024/04/05 02:40:54;;;;;;;3.55;1.38;;;;;;;11.81;100.00;98753.97;4985584;28;20030;-57
2024/04/05 02:43:19;;;;;;;7.72;1.02;;;;;;;11.80;100.00;98757.72;4990148;28;20077;-57
2024/04/05 02:45:45;;;;;;;5.10;1.25;;;;;;;11.85;100.00;98760.63;4977354;28;20049;-57
2024/04/05 02:48:10;;;;;;;3.83;0.93;;;;;;;11.87;100.00;98752.31;4981203;28;20038;-57
2024/04/05 02:50:36;;;;;;;3.38;1.10;;;;;;;11.86;100.00;98746.06;4988762;28;20029;-57
2024/04/05 02:53:01;;;;;;;4.10;1.27;;;;;;;11.81;100.00;98749.34;4993632;28;20029;-57
2024/04/05 02:55:26;;;;;;;4.53;0.88;;;;;;;11.79;100.00;98737.09;4982734;28;20375;-57
2024/04/05 02:57:52;;;;;;;2.85;0.90;;;;;;;11.88;100.00;98754.81;4986207;28;20033;-57
2024/04/05 03:00:17;;;;;;;6.80;1.42;;;;;;;11.82;100.00;98761.06;4988121;28;20037;-57
2024/04/05 03:02:43;;;;;;;5.32;1.20;;;;;;;11.79;100.00;98766.91;4986627;28;20466;-57
2024/04/05 03:05:08;;;;;;;8.35;1.30;;;;;;;11.47;100.00;98726.09;5014461;23;20046;-80
2024/04/05 03:07:33;;;;;;;5.93;1.20;;;;;;;11.24;100.00;98694.06;5003710;28;20281;-80
2024/04/05 03:09:59;;;;;;;5.22;1.20;;;;;;;11.23;100.00;98721.34;5007543;28;20029;-80
2024/04/05 03:12:26;;;;;;;7.03;1.35;;;;;;;11.12;100.00;98710.09;5009905;28;20040;-79
2024/04/05 03:14:51;;;;;;;4.25;1.20;;;;;;;11.23;100.00;98768.22;5016806;28;20033;-80
2024/04/05 03:17:16;;;;;;;3.95;0.93;;;;;;;10.90;100.00;98724.91;5007812;28;20029;-80
2024/04/05 03:19:42;;;;;;;3.05;1.00;;;;;;;11.19;100.00;98786.75;5017064;28;20021;-80
2024/04/05 03:22:08;;;;;;;5.88;1.52;;;;;;;11.11;100.00;98772.59;5011017;28;20257;-80
2024/04/05 03:24:33;;;;;;;5.03;1.48;;;;;;;11.04;100.00;98753.63;5009997;28;20045;-80
2024/04/05 03:26:59;;;;;;;3.75;1.35;;;;;;;10.65;100.00;98690.31;5007544;28;20021;-80
2024/04/05 03:29:25;;;;;;;3.42;1.17;;;;;;;10.58;100.00;98675.94;5009415;28;20068;-80
2024/04/05 03:31:50;;;;;;;8.35;1.85;;;;;;;11.28;100.00;98781.97;5010816;28;20029;-80
2024/04/05 03:34:15;;;;;;;8.65;1.50;;;;;;;11.32;100.00;98776.97;5010044;28;20374;-80
2024/04/05 03:36:40;;;;;;;5.35;1.10;;;;;;;11.36;100.00;98757.38;5023173;28;20210;-80
2024/04/05 03:39:08;;;;;;;5.25;1.45;;;;;;;11.51;100.00;98778.00;5026770;28;20220;-80
2024/04/05 03:41:33;;;;;;;4.90;1.63;;;;;;;11.43;100.00;98761.97;5015999;28;20021;-79
2024/04/05 03:43:59;;;;;;;1.95;0.88;;;;;;;11.01;100.00;98689.06;5028987;28;20064;-84
2024/04/05 03:46:25;;;;;;;3.67;0.85;;;;;;;10.87;100.00;98655.78;5009144;28;20084;-83
2024/04/05 03:48:50;;;;;;;6.80;1.23;;;;;;;11.41;100.00;98735.91;5028519;28;20032;-82
2024/04/05 03:51:15;;;;;;;7.10;1.40;;;;;;;11.37;100.00;98717.56;5008478;28;20022;-78
2024/04/05 03:53:47;;;;;;;4.55;1.48;;;;;;;11.65;100.00;98755.25;5001756;28;20022;-78
2024/04/05 03:56:12;;;;;;;5.85;1.50;;;;;;;11.63;100.00;98741.06;5009912;28;20105;-79
2024/04/05 03:58:37;;;;;;;4.18;1.20;;;;;;;11.67;100.00;98747.75;5003620;28;20317;-76
2024/04/05 04:01:03;;;;;;;5.70;1.10;;;;;;;11.59;100.00;98723.59;5000034;28;20343;-78
2024/04/05 04:03:28;;;;;;;4.10;0.98;;;;;;;11.72;100.00;98739.81;5001139;28;20028;-79
2024/04/05 04:05:54;;;;;;;3.50;1.23;;;;;;;11.72;100.00;98745.22;5008191;28;20026;-78
2024/04/05 04:08:20;;;;;;;5.30;1.65;;;;;;;11.70;100.00;98751.91;5004330;28;20030;-82
2024/04/05 04:10:47;;;;;;;5.70;1.50;;;;;;;11.52;100.00;98753.38;5004386;28;20022;-78
2024/04/05 04:13:13;;;;;;;3.05;1.35;;;;;;;11.45;100.00;98758.00;5007003;28;20037;-80
2024/04/05 04:15:38;;;;;;;3.33;1.10;;;;;;;11.33;100.00;98752.38;5010135;28;20063;-78
2024/04/05 04:18:04;;;;;;;4.68;1.55;;;;;;;11.38;100.00;98773.41;5008245;28;20025;-82
2024/04/05 04:20:30;;;;;;;7.07;1.52;;;;;;;11.25;100.00;98746.34;5009846;28;20032;-84
2024/04/05 04:22:55;;;;;;;2.70;0.90;;;;;;;11.34;100.00;98753.19;5005441;28;20018;-80
2024/04/05 04:25:21;;;;;;;4.60;1.13;;;;;;;11.37;100.00;98741.94;5012927;28;20025;-80
2024/04/05 04:27:48;;;;;;;7.22;1.42;;;;;;;11.44;100.00;98736.53;5002617;28;20057;-78
2024/04/05 04:30:14;;;;;;;3.13;1.10;;;;;;;11.46;100.00;98732.56;5028156;28;20056;-80
2024/04/05 04:32:39;;;;;;;3.63;1.10;;;;;;;11.33;100.00;98719.03;5007158;28;20215;-79
2024/04/05 04:35:05;;;;;;;3.50;1.10;;;;;;;11.50;100.00;98741.09;5006938;28;20326;-82
2024/04/05 04:37:31;;;;;;;8.20;1.85;;;;;;;11.49;100.00;98761.94;5008270;28;20029;-83
2024/04/05 04:39:56;;;;;;;4.20;1.00;;;;;;;11.41;100.00;98751.31;5015223;28;20020;-83
2024/04/05 04:42:22;;;;;;;4.30;1.30;;;;;;;11.40;100.00;98764.03;5015814;28;20033;-85
2024/04/05 04:44:47;;;;;;;4.78;1.30;;;;;;;11.13;100.00;98716.34;5008165;28;20026;-82
2024/04/05 04:47:13;;;;;;;4.03;1.30;;;;;;;11.32;100.00;98729.06;5023376;23;20029;-52
2024/04/05 04:49:39;;;;;;;2.90;1.02;;;;;;;11.50;100.00;98747.38;4971071;28;20039;-54
2024/04/05 04:52:05;;;;;;;2.60;1.50;;;;;;;11.52;100.00;98760.69;4971457;28;20483;-54
2024/04/05 04:54:31;;;;;;;8.98;1.10;;;;;;;11.35;100.00;98750.28;4969131;28;20105;-53
2024/04/05 04:56:56;;;;;;;2.47;1.05;;;;;;;11.36;100.00;98761.97;4970562;28;20105;-53
2024/04/05 04:59:28;;;;;;;3.85;1.40;;;;;;;11.37;100.00;98764.47;4967607;28;20541;-53
2024/04/05 05:01:56;;;;;;;3.13;1.33;;;;;;;11.37;100.00;98764.47;4971524;28;20070;-52
2024/04/05 05:04:23;;;;;;;3.53;1.10;;;;;;;11.28;100.00;98771.13;4966837;28;20070;-52
2024/04/05 05:06:50;;;;;;;5.35;1.08;;;;;;;11.24;100.00;98767.19;4967509;28;20043;-52
2024/04/05 05:09:17;;;;;;;4.55;1.15;;;;;;;11.18;100.00;98768.00;4970017;28;20454;-53
2024/04/05 05:11:42;;;;;;;3.63;1.00;;;;;;;11.12;100.00;98771.53;4969469;28;20467;-52
2024/04/05 05:14:09;;;;;;;6.53;1.33;;;;;;;10.96;100.00;98761.97;4968803;28;20046;-52
2024/04/05 05:16:36;;;;;;;4.93;1.35;;;;;;;10.87;100.00;98768.59;4969939;28;20023;-52
2024/04/05 05:19:03;;;;;;;4.53;1.20;;;;;;;11.01;100.00;98775.72;4970460;28;20122;-52
2024/04/05 05:21:29;;;;;;;4.53;1.70;;;;;;;11.08;100.00;98778.41;4969140;28;20031;-52
2024/04/05 05:23:55;;;;;;;6.28;1.30;;;;;;;11.11;100.00;98769.91;4973674;28;20039;-52
2024/04/05 05:26:21;;;;;;;5.20;1.85;;;;;;;11.11;100.00;98773.44;4971254;28;20033;-52
2024/04/05 05:28:46;;;;;;;5.03;1.98;;;;;;;11.12;100.00;98772.38;4967179;28;20033;-52
2024/04/05 05:31:12;;;;;;;8.88;2.30;;;;;;;11.12;100.00;98769.66;4974547;28;20086;-52
2024/04/05 05:33:37;;;;;;;5.47;1.50;;;;;;;11.10;100.00;98762.78;4973334;28;20367;-52
2024/04/05 05:36:03;;;;;;;5.45;1.50;;;;;;;11.05;100.00;98759.88;4966590;28;20038;-52
2024/04/05 05:38:28;;;;;;;2.58;1.08;;;;;;;11.02;100.00;98763.81;4966239;28;20031;-52
2024/04/05 05:40:54;;;;;;;3.08;1.55;;;;;;;11.07;100.00;98760.50;4974432;28;20426;-52
2024/04/05 05:43:20;;;;;;;4.82;1.33;;;;;;;11.11;100.00;98742.81;4977078;28;20030;-52
2024/04/05 05:45:45;;;;;;;4.80;1.25;;;;;;;11.38;100.00;98758.00;4969537;28;20498;-52
2024/04/05 05:48:11;;;;;;;5.00;1.40;;;;;;;11.62;100.00;98759.22;4967248;28;20077;-52
2024/04/05 05:50:37;;;;;;;3.90;1.52;;;;;;;11.92;100.00;98739.78;4975947;28;20026;-52
2024/04/05 05:53:02;;;;;;;5.68;1.83;;;;;;;12.18;100.00;98732.59;4976523;28;20031;-52
2024/04/05 05:55:28;;;;;;;7.53;2.45;;;;;;;13.25;100.00;98736.28;4973704;28;20037;-52
2024/04/05 05:57:56;;;;;;;3.95;1.50;;;;;;;15.49;100.00;98704.69;4969087;28;20027;-52
2024/04/05 06:00:22;;;;;;;5.53;1.10;;;;;;;17.23;100.00;98695.25;4967603;28;20161;-53
2024/04/05 06:02:47;;;;;;;4.05;1.10;;;;;;;18.20;100.00;98679.38;4964675;28;20482;-52
2024/04/05 06:05:13;;;;;;;5.07;1.15;;;;;;;18.51;100.00;98686.03;4971190;28;20058;-52
2024/04/05 06:07:38;;;;;;;3.08;1.08;;;;;;;19.15;100.00;98674.31;4969303;28;20572;-53
2024/04/05 06:10:04;;;;;;;3.60;1.23;;;;;;;20.69;100.00;98677.81;4976000;28;20035;-53
2024/04/05 06:12:30;;;;;;;1.92;0.82;;;;;;;21.56;100.00;98689.69;4978811;28;20027;-53
2024/04/05 06:14:57;;;;;;;1.48;0.60;;;;;;;22.20;100.00;98688.13;4976904;28;20126;-53
2024/04/05 06:17:24;;;;;;;4.03;0.90;;;;;;;22.46;99.33;98691.59;4956839;28;20129;-53
2024/04/05 06:19:56;;;;;;;3.90;1.30;;;;;;;20.96;100.00;98689.41;4976327;28;20039;-53
2024/04/05 06:22:24;;;;;;;2.55;0.98;;;;;;;19.48;100.00;98695.13;4961634;28;20031;-53
2024/04/05 06:24:54;;;;;;;1.25;0.70;;;;;;;20.33;100.00;98694.19;4973679;28;20037;-53
2024/04/05 06:27:20;;;;;;;4.40;0.65;;;;;;;22.42;100.00;98690.50;4976325;28;20058;-53
2024/04/05 06:29:54;;;;;;;2.00;0.90;;;;;;;23.84;91.12;98687.75;4972578;28;20034;-53
2024/04/05 06:32:19;;;;;;;4.28;0.75;;;;;;;25.12;82.95;98688.78;4970260;28;20186;-52
2024/04/05 06:34:45;;;;;;;3.35;0.90;;;;;;;25.88;74.59;98685.84;4978460;28;20467;-52
2024/04/05 06:37:12;;;;;;;9.73;1.15;;;;;;;27.52;69.06;98684.94;4976046;28;20047;-52
2024/04/05 06:39:40;;;;;;;2.30;0.85;;;;;;;29.81;59.83;98684.63;4975972;28;20042;-53
2024/04/05 06:42:06;;;;;;;4.10;1.10;;;;;;;31.19;54.53;98684.94;4977310;28;20489;-53
2024/04/05 06:44:36;;;;;;;5.78;1.38;;;;;;;32.23;51.64;98671.81;4975462;28;20027;-53
2024/04/05 06:47:06;;;;;;;2.55;1.02;;;;;;;33.12;48.15;98664.56;4976398;28;20031;-53
2024/04/05 06:49:32;;;;;;;2.83;1.08;;;;;;;32.02;48.14;98671.13;4953258;28;20433;-53
2024/04/05 06:52:08;;;;;;;3.40;0.90;;;;;;;31.74;49.35;98662.53;4969974;28;20031;-53
2024/04/05 06:54:35;;;;;;;5.22;1.80;;;;;;;30.49;49.71;98665.09;4974248;28;20418;-53
2024/04/05 06:57:00;;;;;;;3.72;1.25;;;;;;;30.56;50.86;98665.38;4972904;28;20073;-53
2024/04/05 06:59:28;;;;;;;5.25;1.10;;;;;;;31.63;49.40;98662.19;4967099;28;20498;-53
2024/04/05 07:01:54;;;;;;;2.20;0.80;;;;;;;30.90;49.37;98668.28;4954347;28;20035;-53
2024/04/05 07:04:23;;;;;;;2.85;0.88;;;;;;;28.07;53.95;98670.66;4969786;28;20046;-53
2024/04/05 07:06:50;;;;;;;3.15;0.85;;;;;;;25.77;59.56;98671.31;4970927;28;20038;-53
2024/04/05 07:09:15;;;;;;;3.58;0.90;;;;;;;24.44;64.60;98681.81;4969739;28;20117;-53
2024/04/05 07:11:44;;;;;;;3.75;1.20;;;;;;;23.11;73.01;98671.34;4967331;28;20167;-53
2024/04/05 07:14:09;;;;;;;2.53;0.88;;;;;;;23.53;76.07;98656.03;4971264;28;20093;-53
2024/04/05 07:16:34;;;;;;;3.13;0.90;;;;;;;24.02;73.16;98666.81;4971893;28;20109;-53
2024/04/05 07:19:00;;;;;;;1.90;0.82;;;;;;;23.44;73.26;98664.09;4972466;28;20479;-57
2024/04/05 07:21:26;;;;;;;1.83;0.70;;;;;;;24.01;73.97;98654.13;4972053;28;20037;-53
2024/04/05 07:23:54;;;;;;;4.30;0.80;;;;;;;24.08;76.60;98656.53;4976677;28;20356;-53
2024/04/05 07:26:19;;;;;;;2.92;0.98;;;;;;;23.33;76.13;98670.84;4975087;28;20108;-53
2024/04/05 07:28:45;;;;;;;2.13;0.90;;;;;;;24.15;76.29;98659.75;4972815;28;20137;-53
2024/04/05 07:31:10;;;;;;;3.20;1.08;;;;;;;22.36;80.27;98677.84;4969887;28;20161;-53
2024/04/05 07:33:35;;;;;;;5.53;1.30;;;;;;;22.42;89.27;98673.97;4974867;28;20089;-53
2024/04/05 07:36:01;;;;;;;4.47;1.40;;;;;;;22.33;89.28;98670.16;4969589;28;20039;-53
2024/04/05 07:38:26;;;;;;;4.03;1.10;;;;;;;22.32;88.28;98668.50;4968431;28;20039;-53
2024/04/05 07:40:52;;;;;;;2.42;0.80;;;;;;;23.30;85.71;98658.44;4971327;28;20031;-53
2024/04/05 07:43:17;;;;;;;2.28;0.98;;;;;;;23.75;82.25;98650.84;4970352;28;20599;-53
2024/04/05 07:45:42;;;;;;;5.03;0.98;;;;;;;22.60;86.44;98649.59;4971122;28;20053;-53
2024/04/05 07:48:08;;;;;;;4.07;0.95;;;;;;;22.27;92.89;98643.75;4964356;28;20027;-52
2024/04/05 07:50:33;;;;;;;2.72;0.75;;;;;;;21.53;100.00;98651.69;4973688;28;20442;-53
2024/04/05 07:53:00;;;;;;;2.58;0.65;;;;;;;21.46;100.00;98645.66;4965552;28;20038;-53
2024/04/05 07:55:25;;;;;;;2.22;0.90;;;;;;;21.83;100.00;98653.53;4963991;28;20105;-53
2024/04/05 07:57:53;;;;;;;7.25;1.42;;;;;;;22.52;100.00;98660.13;4962250;28;20114;-53
2024/04/05 08:00:20;;;;;;;2.05;0.85;;;;;;;24.42;87.55;98648.06;4975193;28;20035;-53
2024/04/05 08:02:48;;;;;;;4.50;0.90;;;;;;;24.55;80.35;98652.06;4979380;28;20026;-53
2024/04/05 08:05:14;;;;;;;2.00;0.80;;;;;;;25.90;74.04;98652.28;4972861;28;20471;-53
2024/04/05 08:07:39;;;;;;;3.50;0.90;;;;;;;27.10;69.21;98650.97;4966584;28;20041;-53
2024/04/05 08:10:05;;;;;;;6.28;1.30;;;;;;;29.02;62.44;98647.69;4970042;28;20034;-53
2024/04/05 08:12:30;;;;;;;5.03;1.10;;;;;;;29.75;58.18;98641.34;4981200;28;20081;-53
2024/04/05 08:14:56;;;;;;;2.83;0.85;;;;;;;29.66;58.30;98644.19;4970569;28;20033;-53
2024/04/05 08:17:21;;;;;;;6.32;0.88;;;;;;;30.86;54.70;98645.78;4965473;28;20561;-53
2024/04/05 08:19:49;;;;;;;4.43;1.02;;;;;;;30.50;53.44;98640.81;4972344;28;20031;-53
2024/04/05 08:22:15;;;;;;;2.83;0.90;;;;;;;31.99;52.26;98633.44;4967187;28;20034;-54
2024/04/05 08:24:41;;;;;;;1.83;0.70;;;;;;;33.34;47.80;98635.91;4973311;28;20034;-54
2024/04/05 08:27:08;;;;;;;3.15;1.10;;;;;;;32.47;47.82;98628.97;4969122;28;20494;-54
2024/04/05 08:29:35;;;;;;;3.17;0.80;;;;;;;31.93;47.72;98615.25;4966230;28;20082;-53
2024/04/05 08:32:00;;;;;;;4.05;1.00;;;;;;;30.88;48.92;98628.69;4976539;28;20032;-54
2024/04/05 08:34:25;;;;;;;3.65;1.10;;;;;;;32.17;49.02;98625.59;4973619;28;20035;-53
2024/04/05 08:36:51;;;;;;;2.20;0.80;;;;;;;33.40;45.58;98622.44;4969315;28;20034;-54
2024/04/05 08:39:18;;;;;;;2.92;1.13;;;;;;;33.60;44.65;98626.22;4972221;28;20367;-53
2024/04/05 08:41:46;;;;;;;2.63;0.80;;;;;;;33.15;45.10;98630.19;4978304;28;20022;-53
2024/04/05 08:44:15;;;;;;;2.03;0.50;;;;;;;30.54;45.31;98638.97;4965921;28;20035;-53
2024/04/05 08:46:41;;;;;;;1.77;0.60;;;;;;;30.34;46.15;98647.00;4972377;28;20399;-53
2024/04/05 08:49:07;;;;;;;3.88;0.80;;;;;;;28.13;49.97;98622.06;4966632;28;20530;-53
2024/04/05 08:51:37;;;;;;;2.45;0.90;;;;;;;28.41;50.29;98624.59;4968820;28;20454;-53
2024/04/05 08:54:03;;;;;;;2.35;0.50;;;;;;;30.06;47.79;98629.06;4969336;28;20031;-53
2024/04/05 08:56:29;;;;;;;4.03;0.90;;;;;;;29.15;49.34;98628.41;4968943;28;20030;-53
2024/04/05 08:58:54;;;;;;;2.03;0.73;;;;;;;30.74;46.94;98629.78;4968824;28;20042;-53
2024/04/05 09:01:24;;;;;;;3.00;0.90;;;;;;;30.88;46.64;98634.28;4969064;28;20056;-53
2024/04/05 09:03:49;;;;;;;2.20;0.63;;;;;;;29.55;47.55;98620.56;4969367;28;20138;-53
2024/04/05 09:06:16;;;;;;;2.10;0.70;;;;;;;29.45;46.45;98632.09;4970062;28;20118;-53
2024/04/05 09:08:52;;;;;;;1.65;0.60;;;;;;;30.99;45.67;98638.28;4967324;28;20031;-53
2024/04/05 09:11:22;;;;;;;1.70;0.65;;;;;;;28.77;47.89;98631.84;4955892;28;20033;-53
2024/04/05 09:13:58;;;;;;;2.45;0.80;;;;;;;31.26;45.44;98624.88;4952566;28;20125;-53
2024/04/05 09:16:25;;;;;;;3.53;0.73;;;;;;;30.78;47.01;98615.94;4965358;28;20031;-59
2024/04/05 09:18:51;;;;;;;2.28;0.95;;;;;;;30.66;45.32;98622.28;4969431;28;20526;-59
2024/04/05 09:21:19;;;;;;;4.40;0.70;;;;;;;30.00;47.20;98622.88;4969317;28;20030;-59
2024/04/05 09:23:49;;;;;;;5.30;0.85;;;;;;;30.67;46.26;98606.34;4970028;28;20642;-59
2024/04/05 09:26:19;;;;;;;3.83;0.63;;;;;;;31.16;45.13;98610.19;4967337;28;20348;-59
2024/04/05 09:28:57;;;;;;;1.73;0.60;;;;;;;31.69;44.94;98604.03;4971801;28;20494;-59
2024/04/05 09:31:23;;;;;;;2.72;0.80;;;;;;;31.63;45.00;98604.25;4966195;28;20037;-59
2024/04/05 09:33:49;;;;;;;3.75;0.80;;;;;;;31.04;45.36;98615.72;4968223;28;20459;-59
2024/04/05 09:36:17;;;;;;;2.47;0.68;;;;;;;31.70;44.23;98614.84;4967269;28;20395;-59
2024/04/05 09:38:44;;;;;;;4.18;0.65;;;;;;;30.30;46.31;98603.34;4967966;28;20027;-55
2024/04/05 09:41:13;;;;;;;1.27;0.50;;;;;;;29.69;47.11;98598.09;4972888;28;20044;-55
2024/04/05 09:43:40;;;;;;;2.05;0.70;;;;;;;30.87;44.75;98591.56;4969453;28;20038;-55
2024/04/05 09:46:08;;;;;;;1.48;0.70;;;;;;;30.30;46.34;98581.84;4968434;28;20039;-55
2024/04/05 09:48:34;;;;;;;2.58;0.60;;;;;;;29.93;46.15;98586.31;4966471;28;20073;-55
2024/04/05 09:51:13;;;;;;;3.50;0.88;;;;;;;29.39;45.73;98584.06;4972772;28;20026;-55
2024/04/05 09:53:45;;;;;;;1.88;0.50;;;;;;;30.21;46.10;98585.81;4970351;28;20069;-55
2024/04/05 09:56:12;;;;;;;2.35;0.60;;;;;;;30.95;44.85;98585.09;4971676;28;20378;-55
2024/04/05 09:58:40;;;;;;;2.78;0.73;;;;;;;30.98;45.12;98587.19;4964858;28;20027;-55
2024/04/05 10:01:08;;;;;;;5.20;0.50;;;;;;;31.58;43.48;98592.47;4962530;28;20041;-55
2024/04/05 10:03:35;;;;;;;2.17;0.68;;;;;;;30.72;43.09;98587.41;4968938;28;20018;-56
2024/04/05 10:06:17;;;;;;;2.33;0.60;;;;;;;30.94;44.10;98585.41;4966595;28;20360;-52
2024/04/05 10:08:43;;;;;;;1.83;0.57;;;;;;;31.84;42.78;98569.75;4969360;28;20034;-52
2024/04/05 10:11:13;;;;;;;2.42;0.60;;;;;;;30.49;44.67;98586.13;4966527;28;20041;-51
2024/04/05 10:13:39;;;;;;;1.35;0.68;;;;;;;29.81;44.59;98578.66;4969477;28;20482;-51
2024/04/05 10:16:06;;;;;;;3.55;0.70;;;;;;;28.28;46.93;98578.25;4965023;28;20038;-55
2024/04/05 10:18:39;;;;;;;2.28;0.80;;;;;;;29.77;45.48;98566.56;4969030;28;20387;-56
2024/04/05 10:21:11;;;;;;;2.00;0.47;;;;;;;30.98;44.47;98558.44;4972646;28;20037;-55
2024/04/05 10:23:44;;;;;;;2.13;0.70;;;;;;;31.11;42.92;98567.66;4972069;28;20142;-56
2024/04/05 10:26:13;;;;;;;1.73;0.68;;;;;;;32.04;42.75;98552.06;4955578;28;20097;-55
2024/04/05 10:28:38;;;;;;;;;;;;;;;32.12;42.43;98555.06;4970360;28;20023;-55
2024/04/05 10:31:06;;;;;;;3.22;0.40;;;;;;;31.45;42.39;98546.91;4971467;28;20385;-52
2024/04/05 10:33:32;;;;;;;2.20;0.70;;;;;;;31.06;42.20;98545.53;4971162;28;20444;-52
2024/04/05 10:35:59;;;;;;;1.15;0.50;;;;;;;32.63;41.99;98530.22;4972262;28;20070;-51
2024/04/05 10:38:29;;;;;;;3.67;0.63;;;;;;;33.35;40.68;98521.75;4968609;28;20034;-52
2024/04/05 10:41:03;;;;;;;2.38;0.60;;;;;;;32.81;40.14;98522.31;4972277;28;20510;-51
2024/04/05 10:43:30;;;;;;;1.77;0.70;;;;;;;32.27;41.90;98515.13;4968107;28;20034;-52
2024/04/05 10:45:58;;;;;;;2.83;0.68;;;;;;;34.29;39.81;98508.75;4970534;28;20414;-52
2024/04/05 10:48:24;;;;;;;1.95;0.80;;;;;;;34.34;38.39;98497.25;4965678;28;20534;-56
2024/04/05 10:50:50;;;;;;;3.25;0.82;;;;;;;34.56;38.63;98490.06;4973547;28;20034;-56
2024/04/05 10:53:17;;;;;;;3.53;0.52;;;;;;;32.48;39.83;98490.59;4969423;28;20383;-55
2024/04/05 10:55:46;;;;;;;2.60;0.70;;;;;;;33.36;39.14;98484.94;4971881;28;20544;-55
2024/04/05 10:58:13;;;;;;;2.67;0.73;;;;;;;34.47;38.54;98483.84;4965346;28;20521;-55
2024/04/05 11:00:40;;;;;;;2.33;0.70;;;;;;;34.85;38.23;98479.41;4971453;28;20051;-55
2024/04/05 11:03:09;;;;;;;4.38;0.63;;;;;;;34.68;37.52;98475.88;4973405;28;20074;-55
2024/04/05 11:05:35;;;;;;;3.72;0.93;;;;;;;34.34;37.99;98499.25;4970822;28;20386;-55
2024/04/05 11:08:04;;;;;;;2.38;0.80;;;;;;;32.09;39.43;98500.59;4970449;28;20019;-51
2024/04/05 11:10:31;;;;;;;2.20;0.55;;;;;;;32.03;40.28;98491.63;4970856;28;20023;-51
2024/04/05 11:12:57;;;;;;;2.97;0.60;;;;;;;31.88;39.42;98481.16;4975585;28;20031;-52
2024/04/05 11:15:23;;;;;;;1.42;0.40;;;;;;;32.18;39.96;98487.28;4969940;28;20035;-52
2024/04/05 11:18:03;;;;;;;2.33;0.80;;;;;;;33.98;38.08;98481.59;4966113;28;20031;-51
2024/04/05 11:20:31;;;;;;;2.03;0.40;;;;;;;32.53;36.80;98465.13;4970548;28;20023;-51
2024/04/05 11:23:01;;;;;;;1.67;0.40;;;;;;;32.24;37.10;98477.47;4971209;28;20022;-51
2024/04/05 11:25:27;;;;;;;1.60;0.65;;;;;;;31.88;38.18;98478.34;4965355;28;20035;-51